sensor_id;sensor_type;location;lat;lon;timestamp;P1;durP1;ratioP1;P2;durP2;ratioP2
11334;SDS011;5722;42.620;23.374;2024-01-06T00:01:02;9.57;;;5.83;;
11334;SDS011;5722;42.620;23.374;2024-01-06T00:03:32;11.57;;;6.30;;
11334;SDS011;5722;42.620;23.374;2024-01-06T00:06:01;8.30;;;5.90;;
11334;SDS011;5722;42.620;23.374;2024-01-06T00:08:31;5.03;;;3.60;;
11334;SDS011;5722;42.620;23.374;2024-01-06T00:11:08;8.43;;;4.47;;
11334;SDS011;5722;42.620;23.374;2024-01-06T00:13:38;5.97;;;3.30;;
11334;SDS011;5722;42.620;23.374;2024-01-06T00:16:07;9.07;;;4.40;;
11334;SDS011;5722;42.620;23.374;2024-01-06T00:18:38;11.07;;;7.10;;
11334;SDS011;5722;42.620;23.374;2024-01-06T00:21:09;12.97;;;7.37;;
11334;SDS011;5722;42.620;23.374;2024-01-06T00:23:41;10.53;;;6.67;;
11334;SDS011;5722;42.620;23.374;2024-01-06T00:26:10;10.17;;;5.13;;
11334;SDS011;5722;42.620;23.374;2024-01-06T00:28:40;7.27;;;3.83;;
11334;SDS011;5722;42.620;23.374;2024-01-06T00:31:15;4.60;;;3.50;;
11334;SDS011;5722;42.620;23.374;2024-01-06T00:33:43;6.60;;;4.70;;
11334;SDS011;5722;42.620;23.374;2024-01-06T00:36:14;4.57;;;3.37;;
11334;SDS011;5722;42.620;23.374;2024-01-06T00:38:44;7.43;;;3.97;;
11334;SDS011;5722;42.620;23.374;2024-01-06T00:41:11;8.50;;;4.13;;
11334;SDS011;5722;42.620;23.374;2024-01-06T00:43:37;8.33;;;4.23;;
11334;SDS011;5722;42.620;23.374;2024-01-06T00:46:04;8.03;;;4.43;;
11334;SDS011;5722;42.620;23.374;2024-01-06T00:48:33;4.87;;;3.60;;
11334;SDS011;5722;42.620;23.374;2024-01-06T00:51:02;7.83;;;4.10;;
11334;SDS011;5722;42.620;23.374;2024-01-06T00:53:31;7.20;;;4.43;;
11334;SDS011;5722;42.620;23.374;2024-01-06T00:56:00;9.40;;;5.00;;
11334;SDS011;5722;42.620;23.374;2024-01-06T00:58:34;10.47;;;6.10;;
11334;SDS011;5722;42.620;23.374;2024-01-06T01:01:04;14.50;;;6.30;;
11334;SDS011;5722;42.620;23.374;2024-01-06T01:03:38;12.00;;;6.60;;
11334;SDS011;5722;42.620;23.374;2024-01-06T01:06:05;12.57;;;5.10;;
11334;SDS011;5722;42.620;23.374;2024-01-06T01:08:46;10.20;;;6.10;;
11334;SDS011;5722;42.620;23.374;2024-01-06T01:11:14;12.13;;;6.27;;
11334;SDS011;5722;42.620;23.374;2024-01-06T01:13:44;9.80;;;5.80;;
11334;SDS011;5722;42.620;23.374;2024-01-06T01:16:21;12.30;;;5.80;;
11334;SDS011;5722;42.620;23.374;2024-01-06T01:18:51;9.63;;;6.17;;
11334;SDS011;5722;42.620;23.374;2024-01-06T01:21:22;13.10;;;6.93;;
11334;SDS011;5722;42.620;23.374;2024-01-06T01:23:51;12.30;;;7.90;;
11334;SDS011;5722;42.620;23.374;2024-01-06T01:26:18;14.00;;;7.03;;
11334;SDS011;5722;42.620;23.374;2024-01-06T01:28:45;10.97;;;6.90;;
11334;SDS011;5722;42.620;23.374;2024-01-06T01:31:15;11.67;;;7.10;;
11334;SDS011;5722;42.620;23.374;2024-01-06T01:33:42;13.63;;;6.50;;
11334;SDS011;5722;42.620;23.374;2024-01-06T01:36:14;14.27;;;6.07;;
11334;SDS011;5722;42.620;23.374;2024-01-06T01:38:43;11.43;;;6.37;;
11334;SDS011;5722;42.620;23.374;2024-01-06T01:41:11;13.07;;;6.63;;
11334;SDS011;5722;42.620;23.374;2024-01-06T01:43:44;12.07;;;6.00;;
11334;SDS011;5722;42.620;23.374;2024-01-06T01:46:11;9.87;;;5.83;;
11334;SDS011;5722;42.620;23.374;2024-01-06T01:48:44;10.97;;;4.90;;
11334;SDS011;5722;42.620;23.374;2024-01-06T01:51:11;10.20;;;5.67;;
11334;SDS011;5722;42.620;23.374;2024-01-06T01:53:43;10.07;;;5.17;;
11334;SDS011;5722;42.620;23.374;2024-01-06T01:56:11;7.27;;;4.80;;
11334;SDS011;5722;42.620;23.374;2024-01-06T01:58:43;9.40;;;5.20;;
11334;SDS011;5722;42.620;23.374;2024-01-06T02:01:10;12.77;;;6.30;;
11334;SDS011;5722;42.620;23.374;2024-01-06T02:03:39;10.50;;;6.50;;
11334;SDS011;5722;42.620;23.374;2024-01-06T02:06:09;9.43;;;5.23;;
11334;SDS011;5722;42.620;23.374;2024-01-06T02:08:39;10.13;;;5.40;;
11334;SDS011;5722;42.620;23.374;2024-01-06T02:11:08;10.93;;;6.13;;
11334;SDS011;5722;42.620;23.374;2024-01-06T02:13:35;9.63;;;5.13;;
11334;SDS011;5722;42.620;23.374;2024-01-06T02:16:04;9.10;;;5.03;;
11334;SDS011;5722;42.620;23.374;2024-01-06T02:18:39;8.23;;;4.97;;
11334;SDS011;5722;42.620;23.374;2024-01-06T02:21:08;11.10;;;5.40;;
11334;SDS011;5722;42.620;23.374;2024-01-06T02:23:39;7.37;;;5.20;;
11334;SDS011;5722;42.620;23.374;2024-01-06T02:26:12;10.53;;;5.17;;
11334;SDS011;5722;42.620;23.374;2024-01-06T02:28:42;11.10;;;5.03;;
11334;SDS011;5722;42.620;23.374;2024-01-06T02:31:13;8.43;;;4.70;;
11334;SDS011;5722;42.620;23.374;2024-01-06T02:33:41;7.17;;;4.90;;
11334;SDS011;5722;42.620;23.374;2024-01-06T02:36:18;9.20;;;5.63;;
11334;SDS011;5722;42.620;23.374;2024-01-06T02:38:50;9.40;;;6.23;;
11334;SDS011;5722;42.620;23.374;2024-01-06T02:41:21;8.40;;;5.80;;
11334;SDS011;5722;42.620;23.374;2024-01-06T02:43:51;10.07;;;6.20;;
11334;SDS011;5722;42.620;23.374;2024-01-06T02:46:20;8.97;;;6.03;;
11334;SDS011;5722;42.620;23.374;2024-01-06T02:48:48;7.13;;;5.53;;
11334;SDS011;5722;42.620;23.374;2024-01-06T02:51:19;8.80;;;5.50;;
11334;SDS011;5722;42.620;23.374;2024-01-06T02:53:50;8.93;;;5.37;;
11334;SDS011;5722;42.620;23.374;2024-01-06T02:56:20;8.07;;;5.73;;
11334;SDS011;5722;42.620;23.374;2024-01-06T02:59:00;10.70;;;6.00;;
11334;SDS011;5722;42.620;23.374;2024-01-06T03:01:27;10.83;;;6.50;;
11334;SDS011;5722;42.620;23.374;2024-01-06T03:03:57;9.47;;;6.37;;
11334;SDS011;5722;42.620;23.374;2024-01-06T03:06:30;9.43;;;6.17;;
11334;SDS011;5722;42.620;23.374;2024-01-06T03:09:00;11.43;;;6.47;;
11334;SDS011;5722;42.620;23.374;2024-01-06T03:11:27;11.57;;;6.90;;
11334;SDS011;5722;42.620;23.374;2024-01-06T03:13:54;8.97;;;6.47;;
11334;SDS011;5722;42.620;23.374;2024-01-06T03:16:22;12.57;;;7.90;;
11334;SDS011;5722;42.620;23.374;2024-01-06T03:18:52;9.13;;;7.07;;
11334;SDS011;5722;42.620;23.374;2024-01-06T03:21:24;8.70;;;6.70;;
11334;SDS011;5722;42.620;23.374;2024-01-06T03:23:54;9.33;;;6.33;;
11334;SDS011;5722;42.620;23.374;2024-01-06T03:26:29;9.50;;;6.17;;
11334;SDS011;5722;42.620;23.374;2024-01-06T03:29:00;9.20;;;5.57;;
11334;SDS011;5722;42.620;23.374;2024-01-06T03:31:32;7.83;;;5.10;;
11334;SDS011;5722;42.620;23.374;2024-01-06T03:34:00;7.10;;;5.50;;
11334;SDS011;5722;42.620;23.374;2024-01-06T03:36:29;11.30;;;6.00;;
11334;SDS011;5722;42.620;23.374;2024-01-06T03:39:04;6.87;;;5.60;;
11334;SDS011;5722;42.620;23.374;2024-01-06T03:41:37;11.87;;;7.63;;
11334;SDS011;5722;42.620;23.374;2024-01-06T03:44:13;10.53;;;7.03;;
11334;SDS011;5722;42.620;23.374;2024-01-06T03:46:40;7.33;;;5.40;;
11334;SDS011;5722;42.620;23.374;2024-01-06T03:49:07;7.40;;;5.77;;
11334;SDS011;5722;42.620;23.374;2024-01-06T03:51:34;7.93;;;5.17;;
11334;SDS011;5722;42.620;23.374;2024-01-06T03:54:01;6.43;;;5.00;;
11334;SDS011;5722;42.620;23.374;2024-01-06T03:56:30;8.67;;;5.63;;
11334;SDS011;5722;42.620;23.374;2024-01-06T03:58:59;8.77;;;5.77;;
11334;SDS011;5722;42.620;23.374;2024-01-06T04:01:25;7.43;;;5.60;;
11334;SDS011;5722;42.620;23.374;2024-01-06T04:03:55;9.87;;;6.40;;
11334;SDS011;5722;42.620;23.374;2024-01-06T04:06:22;8.40;;;5.90;;
11334;SDS011;5722;42.620;23.374;2024-01-06T04:08:50;7.57;;;5.57;;
11334;SDS011;5722;42.620;23.374;2024-01-06T04:11:29;7.30;;;5.40;;
11334;SDS011;5722;42.620;23.374;2024-01-06T04:14:02;7.53;;;5.13;;
11334;SDS011;5722;42.620;23.374;2024-01-06T04:16:35;8.87;;;6.03;;
11334;SDS011;5722;42.620;23.374;2024-01-06T04:19:06;7.97;;;5.63;;
11334;SDS011;5722;42.620;23.374;2024-01-06T04:21:34;9.07;;;6.60;;
11334;SDS011;5722;42.620;23.374;2024-01-06T04:24:05;9.20;;;5.93;;
11334;SDS011;5722;42.620;23.374;2024-01-06T04:26:34;7.87;;;5.60;;
11334;SDS011;5722;42.620;23.374;2024-01-06T04:29:02;8.07;;;5.33;;
11334;SDS011;5722;42.620;23.374;2024-01-06T04:31:29;7.57;;;5.00;;
11334;SDS011;5722;42.620;23.374;2024-01-06T04:33:58;13.43;;;9.03;;
11334;SDS011;5722;42.620;23.374;2024-01-06T04:36:27;8.33;;;6.30;;
11334;SDS011;5722;42.620;23.374;2024-01-06T04:39:03;13.67;;;7.63;;
11334;SDS011;5722;42.620;23.374;2024-01-06T04:41:30;11.63;;;6.97;;
11334;SDS011;5722;42.620;23.374;2024-01-06T04:43:59;12.00;;;7.43;;
11334;SDS011;5722;42.620;23.374;2024-01-06T04:46:27;5.93;;;4.77;;
11334;SDS011;5722;42.620;23.374;2024-01-06T04:48:59;7.40;;;5.27;;
11334;SDS011;5722;42.620;23.374;2024-01-06T04:51:29;9.43;;;5.60;;
11334;SDS011;5722;42.620;23.374;2024-01-06T04:53:58;8.40;;;5.80;;
11334;SDS011;5722;42.620;23.374;2024-01-06T04:56:30;14.20;;;9.00;;
11334;SDS011;5722;42.620;23.374;2024-01-06T04:59:03;26.67;;;16.37;;
11334;SDS011;5722;42.620;23.374;2024-01-06T05:01:31;28.63;;;15.33;;
11334;SDS011;5722;42.620;23.374;2024-01-06T05:04:01;14.20;;;8.57;;
11334;SDS011;5722;42.620;23.374;2024-01-06T05:06:30;8.80;;;6.43;;
11334;SDS011;5722;42.620;23.374;2024-01-06T05:09:01;15.93;;;8.80;;
11334;SDS011;5722;42.620;23.374;2024-01-06T05:11:34;16.77;;;10.53;;
11334;SDS011;5722;42.620;23.374;2024-01-06T05:14:02;21.10;;;13.03;;
11334;SDS011;5722;42.620;23.374;2024-01-06T05:16:39;18.37;;;9.93;;
11334;SDS011;5722;42.620;23.374;2024-01-06T05:19:06;25.30;;;14.97;;
11334;SDS011;5722;42.620;23.374;2024-01-06T05:21:33;20.73;;;12.07;;
11334;SDS011;5722;42.620;23.374;2024-01-06T05:24:04;13.60;;;8.87;;
11334;SDS011;5722;42.620;23.374;2024-01-06T05:26:34;17.50;;;10.73;;
11334;SDS011;5722;42.620;23.374;2024-01-06T05:29:02;19.40;;;11.47;;
11334;SDS011;5722;42.620;23.374;2024-01-06T05:31:31;13.73;;;7.70;;
11334;SDS011;5722;42.620;23.374;2024-01-06T05:34:03;11.17;;;6.17;;
11334;SDS011;5722;42.620;23.374;2024-01-06T05:36:36;11.93;;;7.50;;
11334;SDS011;5722;42.620;23.374;2024-01-06T05:39:09;14.87;;;7.73;;
11334;SDS011;5722;42.620;23.374;2024-01-06T05:41:38;11.90;;;7.83;;
11334;SDS011;5722;42.620;23.374;2024-01-06T05:44:05;9.20;;;6.03;;
11334;SDS011;5722;42.620;23.374;2024-01-06T05:46:34;9.17;;;6.20;;
11334;SDS011;5722;42.620;23.374;2024-01-06T05:49:03;10.30;;;5.80;;
11334;SDS011;5722;42.620;23.374;2024-01-06T05:51:43;11.10;;;6.43;;
11334;SDS011;5722;42.620;23.374;2024-01-06T05:54:12;13.87;;;7.40;;
11334;SDS011;5722;42.620;23.374;2024-01-06T05:56:43;10.03;;;6.93;;
11334;SDS011;5722;42.620;23.374;2024-01-06T05:59:09;10.13;;;6.80;;
11334;SDS011;5722;42.620;23.374;2024-01-06T06:01:37;8.03;;;6.27;;
11334;SDS011;5722;42.620;23.374;2024-01-06T06:04:05;10.90;;;6.60;;
11334;SDS011;5722;42.620;23.374;2024-01-06T06:06:37;8.70;;;6.07;;
11334;SDS011;5722;42.620;23.374;2024-01-06T06:09:07;9.10;;;6.80;;
11334;SDS011;5722;42.620;23.374;2024-01-06T06:11:37;10.27;;;6.20;;
11334;SDS011;5722;42.620;23.374;2024-01-06T06:14:04;6.97;;;5.20;;
11334;SDS011;5722;42.620;23.374;2024-01-06T06:16:35;8.47;;;5.50;;
11334;SDS011;5722;42.620;23.374;2024-01-06T06:19:02;8.90;;;4.90;;
11334;SDS011;5722;42.620;23.374;2024-01-06T06:21:34;7.43;;;5.13;;
11334;SDS011;5722;42.620;23.374;2024-01-06T06:24:04;7.87;;;5.70;;
11334;SDS011;5722;42.620;23.374;2024-01-06T06:26:38;10.83;;;6.33;;
11334;SDS011;5722;42.620;23.374;2024-01-06T06:29:09;7.30;;;5.13;;
11334;SDS011;5722;42.620;23.374;2024-01-06T06:31:40;7.60;;;4.23;;
11334;SDS011;5722;42.620;23.374;2024-01-06T06:34:10;8.77;;;5.40;;
11334;SDS011;5722;42.620;23.374;2024-01-06T06:36:39;12.23;;;7.87;;
11334;SDS011;5722;42.620;23.374;2024-01-06T06:39:19;10.27;;;6.70;;
11334;SDS011;5722;42.620;23.374;2024-01-06T06:41:54;16.80;;;10.37;;
11334;SDS011;5722;42.620;23.374;2024-01-06T06:44:22;10.50;;;6.30;;
11334;SDS011;5722;42.620;23.374;2024-01-06T06:46:55;6.67;;;4.80;;
11334;SDS011;5722;42.620;23.374;2024-01-06T06:49:30;9.93;;;6.27;;
11334;SDS011;5722;42.620;23.374;2024-01-06T06:52:04;13.37;;;8.20;;
11334;SDS011;5722;42.620;23.374;2024-01-06T06:54:40;13.93;;;8.17;;
11334;SDS011;5722;42.620;23.374;2024-01-06T06:57:07;7.23;;;5.50;;
11334;SDS011;5722;42.620;23.374;2024-01-06T06:59:36;8.37;;;4.97;;
11334;SDS011;5722;42.620;23.374;2024-01-06T07:02:08;6.60;;;4.73;;
11334;SDS011;5722;42.620;23.374;2024-01-06T07:04:39;6.20;;;4.83;;
11334;SDS011;5722;42.620;23.374;2024-01-06T07:07:09;9.87;;;6.03;;
11334;SDS011;5722;42.620;23.374;2024-01-06T07:09:36;11.10;;;6.60;;
11334;SDS011;5722;42.620;23.374;2024-01-06T07:12:07;14.43;;;7.27;;
11334;SDS011;5722;42.620;23.374;2024-01-06T07:14:36;15.63;;;8.00;;
11334;SDS011;5722;42.620;23.374;2024-01-06T07:17:07;14.70;;;7.63;;
11334;SDS011;5722;42.620;23.374;2024-01-06T07:19:34;12.90;;;6.60;;
11334;SDS011;5722;42.620;23.374;2024-01-06T07:22:01;16.23;;;7.13;;
11334;SDS011;5722;42.620;23.374;2024-01-06T07:24:32;10.93;;;6.80;;
11334;SDS011;5722;42.620;23.374;2024-01-06T07:26:59;14.30;;;6.80;;
11334;SDS011;5722;42.620;23.374;2024-01-06T07:29:28;13.27;;;6.40;;
11334;SDS011;5722;42.620;23.374;2024-01-06T07:32:02;11.07;;;6.43;;
11334;SDS011;5722;42.620;23.374;2024-01-06T07:34:34;16.20;;;7.70;;
11334;SDS011;5722;42.620;23.374;2024-01-06T07:37:04;16.00;;;8.37;;
11334;SDS011;5722;42.620;23.374;2024-01-06T07:42:27;13.20;;;7.70;;
11334;SDS011;5722;42.620;23.374;2024-01-06T07:45:19;12.47;;;7.67;;
11334;SDS011;5722;42.620;23.374;2024-01-06T07:51:06;11.33;;;7.17;;
11334;SDS011;5722;42.620;23.374;2024-01-06T07:53:33;9.60;;;6.67;;
11334;SDS011;5722;42.620;23.374;2024-01-06T07:56:09;6.90;;;4.77;;
11334;SDS011;5722;42.620;23.374;2024-01-06T07:58:41;10.33;;;5.00;;
11334;SDS011;5722;42.620;23.374;2024-01-06T08:01:11;7.77;;;4.60;;
11334;SDS011;5722;42.620;23.374;2024-01-06T08:03:43;6.70;;;4.33;;
11334;SDS011;5722;42.620;23.374;2024-01-06T08:06:16;10.63;;;7.13;;
11334;SDS011;5722;42.620;23.374;2024-01-06T08:08:54;8.33;;;4.60;;
11334;SDS011;5722;42.620;23.374;2024-01-06T08:11:24;5.50;;;3.97;;
11334;SDS011;5722;42.620;23.374;2024-01-06T08:13:51;8.50;;;4.47;;
11334;SDS011;5722;42.620;23.374;2024-01-06T08:16:29;7.80;;;5.07;;
11334;SDS011;5722;42.620;23.374;2024-01-06T08:19:01;6.43;;;5.03;;
11334;SDS011;5722;42.620;23.374;2024-01-06T08:21:31;7.70;;;4.50;;
11334;SDS011;5722;42.620;23.374;2024-01-06T08:24:07;5.90;;;3.93;;
11334;SDS011;5722;42.620;23.374;2024-01-06T08:26:36;5.43;;;4.40;;
11334;SDS011;5722;42.620;23.374;2024-01-06T08:29:03;5.47;;;4.10;;
11334;SDS011;5722;42.620;23.374;2024-01-06T08:31:30;6.40;;;4.67;;
11334;SDS011;5722;42.620;23.374;2024-01-06T08:33:58;6.90;;;4.70;;
11334;SDS011;5722;42.620;23.374;2024-01-06T08:36:36;6.07;;;4.47;;
11334;SDS011;5722;42.620;23.374;2024-01-06T08:39:04;8.20;;;4.20;;
11334;SDS011;5722;42.620;23.374;2024-01-06T08:41:35;5.80;;;4.13;;
11334;SDS011;5722;42.620;23.374;2024-01-06T08:44:04;8.50;;;3.90;;
11334;SDS011;5722;42.620;23.374;2024-01-06T08:46:31;4.93;;;3.70;;
11334;SDS011;5722;42.620;23.374;2024-01-06T08:49:03;6.63;;;4.27;;
11334;SDS011;5722;42.620;23.374;2024-01-06T08:51:30;4.63;;;3.80;;
11334;SDS011;5722;42.620;23.374;2024-01-06T08:54:01;4.67;;;3.70;;
11334;SDS011;5722;42.620;23.374;2024-01-06T08:56:31;5.70;;;3.97;;
11334;SDS011;5722;42.620;23.374;2024-01-06T08:58:59;6.80;;;3.90;;
11334;SDS011;5722;42.620;23.374;2024-01-06T09:01:28;5.10;;;4.00;;
11334;SDS011;5722;42.620;23.374;2024-01-06T09:03:56;5.10;;;4.20;;
11334;SDS011;5722;42.620;23.374;2024-01-06T09:06:28;5.27;;;4.30;;
11334;SDS011;5722;42.620;23.374;2024-01-06T09:08:58;6.40;;;5.07;;
11334;SDS011;5722;42.620;23.374;2024-01-06T09:11:25;4.60;;;3.80;;
11334;SDS011;5722;42.620;23.374;2024-01-06T09:13:52;6.27;;;3.90;;
11334;SDS011;5722;42.620;23.374;2024-01-06T09:16:23;5.03;;;4.27;;
11334;SDS011;5722;42.620;23.374;2024-01-06T09:18:53;4.43;;;3.57;;
11334;SDS011;5722;42.620;23.374;2024-01-06T09:21:24;5.97;;;4.10;;
11334;SDS011;5722;42.620;23.374;2024-01-06T09:23:52;5.97;;;3.70;;
11334;SDS011;5722;42.620;23.374;2024-01-06T09:26:24;8.93;;;3.80;;
11334;SDS011;5722;42.620;23.374;2024-01-06T09:28:56;6.73;;;4.43;;
11334;SDS011;5722;42.620;23.374;2024-01-06T09:31:26;9.70;;;5.40;;
11334;SDS011;5722;42.620;23.374;2024-01-06T09:33:59;8.77;;;6.20;;
11334;SDS011;5722;42.620;23.374;2024-01-06T09:36:26;10.17;;;6.23;;
11334;SDS011;5722;42.620;23.374;2024-01-06T09:38:57;9.77;;;6.97;;
11334;SDS011;5722;42.620;23.374;2024-01-06T09:41:27;9.47;;;7.10;;
11334;SDS011;5722;42.620;23.374;2024-01-06T09:44:02;11.00;;;7.30;;
11334;SDS011;5722;42.620;23.374;2024-01-06T09:46:29;11.00;;;6.67;;
11334;SDS011;5722;42.620;23.374;2024-01-06T09:51:40;9.73;;;6.27;;
11334;SDS011;5722;42.620;23.374;2024-01-06T09:54:21;11.17;;;6.13;;
11334;SDS011;5722;42.620;23.374;2024-01-06T09:56:48;7.07;;;5.33;;
11334;SDS011;5722;42.620;23.374;2024-01-06T09:59:25;9.20;;;6.20;;
11334;SDS011;5722;42.620;23.374;2024-01-06T10:01:56;9.03;;;5.53;;
11334;SDS011;5722;42.620;23.374;2024-01-06T10:04:27;10.43;;;4.97;;
11334;SDS011;5722;42.620;23.374;2024-01-06T10:07:00;5.50;;;4.43;;
11334;SDS011;5722;42.620;23.374;2024-01-06T10:09:37;7.23;;;4.30;;
11334;SDS011;5722;42.620;23.374;2024-01-06T10:12:07;5.63;;;4.30;;
11334;SDS011;5722;42.620;23.374;2024-01-06T10:14:40;11.60;;;6.37;;
11334;SDS011;5722;42.620;23.374;2024-01-06T10:17:12;13.80;;;6.47;;
11334;SDS011;5722;42.620;23.374;2024-01-06T10:19:39;9.73;;;6.47;;
11334;SDS011;5722;42.620;23.374;2024-01-06T10:22:13;10.17;;;7.20;;
11334;SDS011;5722;42.620;23.374;2024-01-06T10:24:46;16.03;;;10.03;;
11334;SDS011;5722;42.620;23.374;2024-01-06T10:27:16;26.73;;;17.03;;
11334;SDS011;5722;42.620;23.374;2024-01-06T10:29:50;30.43;;;22.13;;
11334;SDS011;5722;42.620;23.374;2024-01-06T10:32:17;30.87;;;21.90;;
11334;SDS011;5722;42.620;23.374;2024-01-06T10:34:46;33.53;;;22.13;;
11334;SDS011;5722;42.620;23.374;2024-01-06T10:37:19;29.43;;;21.17;;
11334;SDS011;5722;42.620;23.374;2024-01-06T10:39:45;31.53;;;20.47;;
11334;SDS011;5722;42.620;23.374;2024-01-06T10:42:15;27.33;;;18.87;;
11334;SDS011;5722;42.620;23.374;2024-01-06T10:44:44;32.23;;;17.73;;
11334;SDS011;5722;42.620;23.374;2024-01-06T10:47:15;26.73;;;18.03;;
11334;SDS011;5722;42.620;23.374;2024-01-06T10:49:43;28.23;;;19.53;;
11334;SDS011;5722;42.620;23.374;2024-01-06T10:52:15;27.63;;;17.53;;
11334;SDS011;5722;42.620;23.374;2024-01-06T10:54:49;28.33;;;17.33;;
11334;SDS011;5722;42.620;23.374;2024-01-06T10:57:31;28.07;;;17.80;;
11334;SDS011;5722;42.620;23.374;2024-01-06T10:59:59;23.17;;;16.60;;
11334;SDS011;5722;42.620;23.374;2024-01-06T11:02:29;23.90;;;16.50;;
11334;SDS011;5722;42.620;23.374;2024-01-06T11:05:03;22.63;;;16.47;;
11334;SDS011;5722;42.620;23.374;2024-01-06T11:07:33;29.83;;;16.67;;
11334;SDS011;5722;42.620;23.374;2024-01-06T11:10:09;27.10;;;16.30;;
11334;SDS011;5722;42.620;23.374;2024-01-06T11:12:39;25.97;;;15.27;;
11334;SDS011;5722;42.620;23.374;2024-01-06T11:15:07;25.03;;;14.97;;
11334;SDS011;5722;42.620;23.374;2024-01-06T11:17:49;23.63;;;16.50;;
11334;SDS011;5722;42.620;23.374;2024-01-06T11:20:20;23.43;;;15.90;;
11334;SDS011;5722;42.620;23.374;2024-01-06T11:22:50;20.77;;;14.80;;
11334;SDS011;5722;42.620;23.374;2024-01-06T11:25:20;25.33;;;14.00;;
11334;SDS011;5722;42.620;23.374;2024-01-06T11:27:50;20.63;;;13.77;;
11334;SDS011;5722;42.620;23.374;2024-01-06T11:30:22;18.07;;;12.57;;
11334;SDS011;5722;42.620;23.374;2024-01-06T11:32:51;20.63;;;13.13;;
11334;SDS011;5722;42.620;23.374;2024-01-06T11:35:20;25.13;;;14.53;;
11334;SDS011;5722;42.620;23.374;2024-01-06T11:37:54;25.07;;;13.30;;
11334;SDS011;5722;42.620;23.374;2024-01-06T11:40:31;25.33;;;14.07;;
11334;SDS011;5722;42.620;23.374;2024-01-06T11:43:03;19.03;;;12.13;;
11334;SDS011;5722;42.620;23.374;2024-01-06T11:45:34;19.80;;;12.50;;
11334;SDS011;5722;42.620;23.374;2024-01-06T11:48:07;25.30;;;12.83;;
11334;SDS011;5722;42.620;23.374;2024-01-06T11:50:37;21.13;;;10.73;;
11334;SDS011;5722;42.620;23.374;2024-01-06T11:53:10;21.07;;;12.67;;
11334;SDS011;5722;42.620;23.374;2024-01-06T11:55:42;15.90;;;10.37;;
11334;SDS011;5722;42.620;23.374;2024-01-06T11:58:09;16.27;;;9.17;;
11334;SDS011;5722;42.620;23.374;2024-01-06T12:03:23;13.70;;;9.20;;
11334;SDS011;5722;42.620;23.374;2024-01-06T12:06:01;13.73;;;9.50;;
11334;SDS011;5722;42.620;23.374;2024-01-06T12:08:29;15.73;;;8.93;;
11334;SDS011;5722;42.620;23.374;2024-01-06T12:11:03;16.30;;;8.77;;
11334;SDS011;5722;42.620;23.374;2024-01-06T12:13:34;13.00;;;8.63;;
11334;SDS011;5722;42.620;23.374;2024-01-06T12:16:01;12.73;;;8.27;;
11334;SDS011;5722;42.620;23.374;2024-01-06T12:18:30;14.17;;;8.57;;
11334;SDS011;5722;42.620;23.374;2024-01-06T12:21:08;14.00;;;8.73;;
11334;SDS011;5722;42.620;23.374;2024-01-06T12:23:39;14.77;;;8.43;;
11334;SDS011;5722;42.620;23.374;2024-01-06T12:26:11;12.87;;;9.33;;
11334;SDS011;5722;42.620;23.374;2024-01-06T12:28:38;16.10;;;10.47;;
11334;SDS011;5722;42.620;23.374;2024-01-06T12:31:04;14.93;;;10.10;;
11334;SDS011;5722;42.620;23.374;2024-01-06T12:33:35;12.10;;;8.77;;
11334;SDS011;5722;42.620;23.374;2024-01-06T12:36:17;13.83;;;8.83;;
11334;SDS011;5722;42.620;23.374;2024-01-06T12:38:53;13.37;;;9.17;;
11334;SDS011;5722;42.620;23.374;2024-01-06T12:41:37;16.83;;;9.00;;
11334;SDS011;5722;42.620;23.374;2024-01-06T12:44:22;18.90;;;9.43;;
11334;SDS011;5722;42.620;23.374;2024-01-06T12:46:59;12.73;;;8.60;;
11334;SDS011;5722;42.620;23.374;2024-01-06T12:49:30;15.40;;;9.53;;
11334;SDS011;5722;42.620;23.374;2024-01-06T12:52:02;14.97;;;7.83;;
11334;SDS011;5722;42.620;23.374;2024-01-06T12:54:31;17.63;;;9.10;;
11334;SDS011;5722;42.620;23.374;2024-01-06T12:57:21;12.90;;;8.30;;
11334;SDS011;5722;42.620;23.374;2024-01-06T12:59:58;12.50;;;8.00;;
11334;SDS011;5722;42.620;23.374;2024-01-06T13:02:29;18.00;;;8.17;;
11334;SDS011;5722;42.620;23.374;2024-01-06T13:05:00;18.83;;;8.87;;
11334;SDS011;5722;42.620;23.374;2024-01-06T13:07:30;16.50;;;8.73;;
11334;SDS011;5722;42.620;23.374;2024-01-06T13:09:58;17.63;;;7.93;;
11334;SDS011;5722;42.620;23.374;2024-01-06T13:12:28;14.37;;;7.87;;
11334;SDS011;5722;42.620;23.374;2024-01-06T13:15:00;14.73;;;8.17;;
11334;SDS011;5722;42.620;23.374;2024-01-06T13:17:37;11.23;;;8.40;;
11334;SDS011;5722;42.620;23.374;2024-01-06T13:20:21;22.83;;;9.63;;
11334;SDS011;5722;42.620;23.374;2024-01-06T13:22:49;19.53;;;9.57;;
11334;SDS011;5722;42.620;23.374;2024-01-06T13:25:20;13.93;;;8.23;;
11334;SDS011;5722;42.620;23.374;2024-01-06T13:27:49;19.87;;;8.30;;
11334;SDS011;5722;42.620;23.374;2024-01-06T13:30:19;16.53;;;8.77;;
11334;SDS011;5722;42.620;23.374;2024-01-06T13:32:58;12.70;;;8.03;;
11334;SDS011;5722;42.620;23.374;2024-01-06T13:35:25;10.63;;;6.90;;
11334;SDS011;5722;42.620;23.374;2024-01-06T13:37:56;11.03;;;6.53;;
11334;SDS011;5722;42.620;23.374;2024-01-06T13:40:35;12.90;;;7.03;;
11334;SDS011;5722;42.620;23.374;2024-01-06T13:43:41;9.67;;;6.33;;
11334;SDS011;5722;42.620;23.374;2024-01-06T13:46:15;17.07;;;8.13;;
11334;SDS011;5722;42.620;23.374;2024-01-06T13:48:43;14.20;;;9.00;;
11334;SDS011;5722;42.620;23.374;2024-01-06T13:51:13;14.83;;;8.57;;
11334;SDS011;5722;42.620;23.374;2024-01-06T13:53:40;16.67;;;8.47;;
11334;SDS011;5722;42.620;23.374;2024-01-06T13:56:09;15.47;;;7.50;;
11334;SDS011;5722;42.620;23.374;2024-01-06T13:58:39;26.03;;;8.20;;
11334;SDS011;5722;42.620;23.374;2024-01-06T14:01:05;11.17;;;7.77;;
11334;SDS011;5722;42.620;23.374;2024-01-06T14:03:43;17.80;;;8.33;;
11334;SDS011;5722;42.620;23.374;2024-01-06T14:06:15;16.80;;;8.00;;
11334;SDS011;5722;42.620;23.374;2024-01-06T14:08:45;16.83;;;7.73;;
11334;SDS011;5722;42.620;23.374;2024-01-06T14:11:18;17.80;;;8.60;;
11334;SDS011;5722;42.620;23.374;2024-01-06T14:16:30;19.47;;;8.23;;
11334;SDS011;5722;42.620;23.374;2024-01-06T14:19:00;15.33;;;8.10;;
11334;SDS011;5722;42.620;23.374;2024-01-06T14:21:30;38.33;;;10.77;;
11334;SDS011;5722;42.620;23.374;2024-01-06T14:23:57;18.90;;;9.60;;
11334;SDS011;5722;42.620;23.374;2024-01-06T14:26:27;24.43;;;12.27;;
11334;SDS011;5722;42.620;23.374;2024-01-06T14:28:56;23.67;;;12.70;;
11334;SDS011;5722;42.620;23.374;2024-01-06T14:31:23;22.60;;;13.00;;
11334;SDS011;5722;42.620;23.374;2024-01-06T14:34:05;21.87;;;13.53;;
11334;SDS011;5722;42.620;23.374;2024-01-06T14:36:42;28.83;;;17.17;;
11334;SDS011;5722;42.620;23.374;2024-01-06T14:39:16;22.20;;;13.77;;
11334;SDS011;5722;42.620;23.374;2024-01-06T14:41:47;20.33;;;13.57;;
11334;SDS011;5722;42.620;23.374;2024-01-06T14:44:23;23.10;;;14.10;;
11334;SDS011;5722;42.620;23.374;2024-01-06T14:46:52;21.83;;;13.57;;
11334;SDS011;5722;42.620;23.374;2024-01-06T14:49:21;21.60;;;13.13;;
11334;SDS011;5722;42.620;23.374;2024-01-06T14:51:49;14.00;;;10.33;;
11334;SDS011;5722;42.620;23.374;2024-01-06T14:54:16;13.90;;;8.47;;
11334;SDS011;5722;42.620;23.374;2024-01-06T14:56:44;10.60;;;7.60;;
11334;SDS011;5722;42.620;23.374;2024-01-06T14:59:15;11.27;;;7.77;;
11334;SDS011;5722;42.620;23.374;2024-01-06T15:01:49;13.33;;;7.97;;
11334;SDS011;5722;42.620;23.374;2024-01-06T15:04:15;10.23;;;6.47;;
11334;SDS011;5722;42.620;23.374;2024-01-06T15:06:53;9.83;;;5.83;;
11334;SDS011;5722;42.620;23.374;2024-01-06T15:09:26;12.40;;;6.47;;
11334;SDS011;5722;42.620;23.374;2024-01-06T15:11:55;7.87;;;5.80;;
11334;SDS011;5722;42.620;23.374;2024-01-06T15:14:34;11.63;;;7.33;;